Ercan International Airport


Codes: LCEN/ECN
Name: Ercan International Airport
City: Nicosia
Country: Cyprus
Elevation: 404 ft.
Wikipedia:

Photos at Ercan International Airport


   Photos courtesy of SpottingLog. You can add your own sightings and photos by signing up for a free trial today.



No photos found.

Weather at Ercan International Airport


Time (UTC)DescriptionTempratureWindCloud coverageVisibilityPressureHumidity
17-Jun-2024 06:00Scattered Clouds25°C2 mph, SE50%10000m1009hPa75%
17-Jun-2024 09:00Scattered Clouds30°C9 mph, SE25%10000m1009hPa52%
17-Jun-2024 12:00Clear Sky34°C9 mph, SE0%10000m1009hPa34%
17-Jun-2024 15:00Clear Sky31°C2 mph, NE0%10000m1009hPa45%
17-Jun-2024 18:00Clear Sky27°C4 mph, NE0%10000m1010hPa62%
17-Jun-2024 21:00Scattered Clouds27°C4 mph, NE25%10000m1010hPa66%
18-Jun-2024 00:00Few Clouds25°C2 mph, N19%10000m1010hPa74%
18-Jun-2024 03:00Clear Sky25°C0 mph, N1%10000m1010hPa76%
18-Jun-2024 06:00Clear Sky29°C2 mph, E0%10000m1011hPa51%
18-Jun-2024 09:00Clear Sky34°C7 mph, NE0%10000m1010hPa35%
18-Jun-2024 12:00Clear Sky35°C9 mph, E0%10000m1009hPa34%
18-Jun-2024 15:00Clear Sky33°C4 mph, NE0%10000m1008hPa43%
18-Jun-2024 18:00Clear Sky28°C11 mph, NW0%10000m1009hPa63%
18-Jun-2024 21:00Clear Sky27°C9 mph, NW0%10000m1009hPa66%
19-Jun-2024 00:00Clear Sky26°C2 mph, W0%10000m1008hPa63%
19-Jun-2024 03:00Clear Sky25°C2 mph, SE0%10000m1008hPa63%
19-Jun-2024 06:00Clear Sky31°C2 mph, SE0%10000m1008hPa43%
19-Jun-2024 09:00Clear Sky36°C7 mph, NE0%10000m1008hPa26%
19-Jun-2024 12:00Clear Sky37°C7 mph, E0%10000m1007hPa24%
19-Jun-2024 15:00Clear Sky35°C4 mph, NE0%10000m1006hPa30%
19-Jun-2024 18:00Clear Sky30°C4 mph, NW0%10000m1007hPa48%
19-Jun-2024 21:00Clear Sky28°C7 mph, NW0%10000m1007hPa49%
20-Jun-2024 00:00Clear Sky28°C4 mph, SW0%10000m1007hPa47%
20-Jun-2024 03:00Clear Sky28°C4 mph, NW0%10000m1006hPa38%
20-Jun-2024 06:00Clear Sky34°C4 mph, E0%10000m1007hPa24%
20-Jun-2024 09:00Clear Sky38°C4 mph, NE0%10000m1006hPa20%
20-Jun-2024 12:00Clear Sky38°C9 mph, SE0%10000m1006hPa23%
20-Jun-2024 15:00Clear Sky37°C2 mph, SE0%10000m1005hPa28%
20-Jun-2024 18:00Clear Sky30°C11 mph, NW0%10000m1006hPa46%
20-Jun-2024 21:00Clear Sky28°C7 mph, W0%10000m1007hPa59%
21-Jun-2024 00:00Clear Sky27°C2 mph, W0%10000m1006hPa63%
21-Jun-2024 03:00Clear Sky27°C4 mph, SE0%10000m1007hPa65%
21-Jun-2024 06:00Clear Sky31°C7 mph, E0%10000m1007hPa43%
21-Jun-2024 09:00Clear Sky36°C7 mph, NE0%10000m1007hPa30%
21-Jun-2024 12:00Clear Sky36°C2 mph, E0%10000m1006hPa33%
21-Jun-2024 15:00Clear Sky34°C11 mph, N0%10000m1005hPa37%
21-Jun-2024 18:00Clear Sky27°C11 mph, NW0%10000m1006hPa70%
21-Jun-2024 21:00Clear Sky26°C7 mph, W0%10000m1007hPa73%
22-Jun-2024 00:00Clear Sky25°C2 mph, SW0%10000m1006hPa77%
22-Jun-2024 03:00Clear Sky24°C4 mph, SE0%10000m1006hPa82%